Time;durP1;ratioP1;P1;durP2;ratioP2;P2;SDS_P1;SDS_P2;PMS_P1;PMS_P2;Temp;Humidity;BMP_temperature;BMP_pressure;BME280_temperature;BME280_humidity;BME280_pressure;Samples;Min_cycle;Max_cycle;Signal;HPM_P1;HPM_P2
2022/12/01 00:01:34;;;;;;;97.85;42.72;;;;;;;;;;4943612;28;20039;-78
2022/12/01 00:04:00;;;;;;;103.60;42.75;;;;;;;;;;4940613;28;20149;-74
2022/12/01 00:06:26;;;;;;;95.78;42.38;;;;;;;;;;4949313;28;20042;-75
2022/12/01 00:11:37;;;;;;;101.20;42.65;;;;;;;;;;4950133;28;20542;-75
2022/12/01 00:14:04;;;;;;;97.07;42.25;;;;;;;;;;4947743;28;20139;-81
2022/12/01 00:16:30;;;;;;;98.72;41.97;;;;;;;;;;4943652;28;20036;-73
2022/12/01 00:18:56;;;;;;;95.18;42.60;;;;;;;;;;4946147;28;20031;-74
2022/12/01 00:21:23;;;;;;;105.93;44.42;;;;;;;;;;4947619;28;20117;-73
2022/12/01 00:23:50;;;;;;;97.70;42.65;;;;;;;;;;4948775;28;20031;-78
2022/12/01 00:26:17;;;;;;;91.72;40.72;;;;;;;;;;4948455;28;20382;-74
2022/12/01 00:28:43;;;;;;;100.00;41.80;;;;;;;;;;4950336;28;20043;-73
2022/12/01 00:31:10;;;;;;;92.45;41.97;;;;;;;;;;4946590;28;20469;-73
2022/12/01 00:33:36;;;;;;;96.88;42.00;;;;;;;;;;4946865;28;20031;-72
2022/12/01 00:36:03;;;;;;;95.47;41.88;;;;;;;;;;4947302;28;20257;-79
2022/12/01 00:38:29;;;;;;;89.13;41.60;;;;;;;;;;4951102;28;20046;-77
2022/12/01 00:40:55;;;;;;;110.93;44.38;;;;;;;;;;4948758;28;20063;-74
2022/12/01 00:43:21;;;;;;;96.55;39.50;;;;;;;;;;4949964;28;20027;-73
2022/12/01 00:45:47;;;;;;;91.43;40.15;;;;;;;;;;4948135;28;20032;-74
2022/12/01 00:48:13;;;;;;;101.88;41.78;;;;;;;;;;4949395;28;20181;-80
2022/12/01 00:50:39;;;;;;;86.82;38.80;;;;;;;;;;4946896;28;20050;-73
2022/12/01 00:53:05;;;;;;;93.60;41.20;;;;;;;;;;4948791;28;20154;-74
2022/12/01 00:55:31;;;;;;;105.72;42.20;;;;;;;;;;4949109;28;20499;-77
2022/12/01 00:57:57;;;;;;;93.47;40.35;;;;;;;;;;4947725;28;20041;-75
2022/12/01 01:00:23;;;;;;;98.18;41.33;;;;;;;;;;4950320;28;20039;-73
2022/12/01 01:02:49;;;;;;;102.97;41.03;;;;;;;;;;4949725;28;20051;-74
2022/12/01 01:05:15;;;;;;;99.05;41.05;;;;;;;;;;4948927;28;20028;-73
2022/12/01 01:07:41;;;;;;;100.50;41.13;;;;;;;;;;4935198;28;20030;-74
2022/12/01 01:10:08;;;;;;;95.35;41.50;;;;;;;;;;4948597;28;20047;-74
2022/12/01 01:12:34;;;;;;;97.88;41.05;;;;;;;;;;4948176;28;20042;-81
2022/12/01 01:15:00;;;;;;;95.80;42.53;;;;;;;;;;4949229;28;20047;-74
2022/12/01 01:17:26;;;;;;;95.95;41.03;;;;;;;;;;4931635;28;20035;-75
2022/12/01 01:19:52;;;;;;;102.38;41.08;;;;;;;;;;4949675;28;20027;-76
2022/12/01 01:22:19;;;;;;;97.43;39.85;;;;;;;;;;4950216;28;20118;-73
2022/12/01 01:24:45;;;;;;;84.68;39.15;;;;;;;;;;4949352;28;20497;-73
2022/12/01 01:27:11;;;;;;;91.00;40.33;;;;;;;;;;4929651;28;20039;-75
2022/12/01 01:29:37;;;;;;;94.60;41.03;;;;;;;;;;4927795;29;20044;-76
2022/12/01 01:32:03;;;;;;;91.57;41.42;;;;;;;;;;4927551;29;20593;-74
2022/12/01 01:34:29;;;;;;;96.85;40.90;;;;;;;;;;4930452;29;20069;-75
2022/12/01 01:36:55;;;;;;;97.82;40.15;;;;;;;;;;4927194;29;20402;-75
2022/12/01 01:39:21;;;;;;;89.60;40.83;;;;;;;;;;4929774;29;20293;-73
2022/12/01 01:41:48;;;;;;;89.13;39.60;;;;;;;;;;4928979;29;20028;-74
2022/12/01 01:44:32;;;;;;;96.00;41.90;;;;;;;;;;4928908;29;20032;-73
2022/12/01 01:46:58;;;;;;;95.93;40.45;;;;;;;;;;4927291;29;20046;-75
2022/12/01 01:49:25;;;;;;;94.22;43.05;;;;;;;;;;4928805;29;20071;-74
2022/12/01 01:51:52;;;;;;;94.90;39.67;;;;;;;;;;4927594;29;20223;-73
2022/12/01 01:54:31;;;;;;;91.68;43.55;;;;;;;;;;4929738;29;20032;-75
2022/12/01 01:56:59;;;;;;;92.40;40.85;;;;;;;;;;4918435;29;20035;-75
2022/12/01 01:59:28;;;;;;;90.43;39.88;;;;;;;;;;4925626;29;20481;-73
2022/12/01 02:02:01;;;;;;;89.18;39.63;;;;;;;;;;4929006;29;20023;-81
2022/12/01 02:04:28;;;;;;;88.78;40.15;;;;;;;;;;4926770;29;20023;-73
2022/12/01 02:06:55;;;;;;;86.30;39.97;;;;;;;;;;4928503;29;20417;-74
2022/12/01 02:09:21;;;;;;;87.05;40.35;;;;;;;;;;4925784;29;20109;-74
2022/12/01 02:12:06;;;;;;;91.28;38.90;;;;;;;;;;4911986;29;20059;-74
2022/12/01 02:14:32;;;;;;;96.47;41.80;;;;;;;;;;4924400;29;20168;-75
2022/12/01 02:17:03;;;;;;;97.20;41.33;;;;;;;;;;4929802;29;20102;-73
2022/12/01 02:19:42;;;;;;;94.35;41.70;;;;;;;;;;4930145;29;20042;-74
2022/12/01 02:22:23;;;;;;;98.45;42.10;;;;;;;;;;4928546;29;20142;-79
2022/12/01 02:24:53;;;;;;;94.95;41.35;;;;;;;;;;4927310;29;20377;-72
2022/12/01 02:27:37;;;;;;;89.07;42.53;;;;;;;;;;4910040;28;20040;-72
2022/12/01 02:30:06;;;;;;;92.57;41.85;;;;;;;;;;4927919;29;20443;-78
2022/12/01 02:32:51;;;;;;;93.82;39.33;;;;;;;;;;4947763;28;20023;-72
2022/12/01 02:35:36;;;;;;;100.30;42.42;;;;;;;;;;4944503;28;20046;-73
2022/12/01 02:38:08;;;;;;;99.20;43.63;;;;;;;;;;4946112;28;20110;-73
2022/12/01 02:40:40;;;;;;;102.07;43.75;;;;;;;;;;4946100;28;20015;-76
2022/12/01 02:43:19;;;;;;;98.47;41.72;;;;;;;;;;4947179;28;20128;-75
2022/12/01 02:45:55;;;;;;;98.13;41.13;;;;;;;;;;4944539;28;20042;-73
2022/12/01 02:48:25;;;;;;;99.55;43.83;;;;;;;;;;4926978;28;20035;-72
2022/12/01 02:50:52;;;;;;;89.32;40.53;;;;;;;;;;4944756;28;20019;-79
2022/12/01 02:53:19;;;;;;;96.22;44.35;;;;;;;;;;4944668;28;20099;-73
2022/12/01 02:55:52;;;;;;;98.28;42.70;;;;;;;;;;4927306;28;20047;-74
2022/12/01 02:58:18;;;;;;;105.38;45.33;;;;;;;;;;4946529;28;20110;-73
2022/12/01 03:01:11;;;;;;;113.80;45.33;;;;;;;;;;4945847;28;20058;-72
2022/12/01 03:03:59;;;;;;;100.10;43.42;;;;;;;;;;4943987;28;20051;-75
2022/12/01 03:06:36;;;;;;;98.60;42.65;;;;;;;;;;4944877;28;20469;-74
2022/12/01 03:09:02;;;;;;;104.60;45.25;;;;;;;;;;4947987;28;20046;-76
2022/12/01 03:11:41;;;;;;;102.13;42.60;;;;;;;;;;4926766;28;20547;-75
2022/12/01 03:14:16;;;;;;;100.25;43.10;;;;;;;;;;4946102;28;20023;-75
2022/12/01 03:16:48;;;;;;;102.78;43.50;;;;;;;;;;4926273;28;20035;-75
2022/12/01 03:19:17;;;;;;;104.93;46.22;;;;;;;;;;4945778;28;20041;-74
2022/12/01 03:21:50;;;;;;;97.10;42.78;;;;;;;;;;4927512;29;20034;-73
2022/12/01 03:24:18;;;;;;;94.97;43.50;;;;;;;;;;4945799;28;20523;-79
2022/12/01 03:26:47;;;;;;;113.13;45.78;;;;;;;;;;4945264;28;20083;-74
2022/12/01 03:29:17;;;;;;;101.60;46.22;;;;;;;;;;4946645;28;20047;-75
2022/12/01 03:32:03;;;;;;;102.15;44.05;;;;;;;;;;4945937;28;20023;-72
2022/12/01 03:34:52;;;;;;;111.50;43.03;;;;;;;;;;4946736;28;20031;-75
2022/12/01 03:37:21;;;;;;;105.57;44.47;;;;;;;;;;4934848;28;20126;-72
2022/12/01 03:39:49;;;;;;;99.55;44.75;;;;;;;;;;4942783;28;20377;-73
2022/12/01 03:42:20;;;;;;;99.55;41.85;;;;;;;;;;4934430;28;20459;-74
2022/12/01 03:44:49;;;;;;;98.07;43.08;;;;;;;;;;4947272;28;20054;-76
2022/12/01 03:47:20;;;;;;;99.22;43.47;;;;;;;;;;4945791;28;20027;-75
2022/12/01 03:49:47;;;;;;;96.55;42.85;;;;;;;;;;4948624;28;20035;-79
2022/12/01 03:52:40;;;;;;;106.25;45.00;;;;;;;;;;4945616;28;20504;-80
2022/12/01 03:55:10;;;;;;;110.30;42.70;;;;;;;;;;4916504;28;20043;-72
2022/12/01 03:57:48;;;;;;;100.18;41.85;;;;;;;;;;4947165;28;20039;-72
2022/12/01 04:00:15;;;;;;;104.85;42.65;;;;;;;;;;4947548;28;20385;-72
2022/12/01 04:02:43;;;;;;;94.25;41.80;;;;;;;;;;4945079;28;20031;-72
2022/12/01 04:05:09;;;;;;;97.75;41.50;;;;;;;;;;4948059;28;20043;-72
2022/12/01 04:07:36;;;;;;;102.20;42.80;;;;;;;;;;4946526;28;20027;-73
2022/12/01 04:10:02;;;;;;;91.15;41.75;;;;;;;;;;4943867;28;20042;-73
2022/12/01 04:12:29;;;;;;;93.20;39.58;;;;;;;;;;4945794;28;20086;-72
2022/12/01 04:15:03;;;;;;;91.43;40.63;;;;;;;;;;4945335;28;20119;-82
2022/12/01 04:17:29;;;;;;;107.00;43.80;;;;;;;;;;4948422;28;20555;-75
2022/12/01 04:19:55;;;;;;;95.53;42.13;;;;;;;;;;4943830;28;20059;-74
2022/12/01 04:22:21;;;;;;;100.55;41.92;;;;;;;;;;4942749;28;20042;-70
2022/12/01 04:24:47;;;;;;;90.72;41.35;;;;;;;;;;4924635;28;20028;-78
2022/12/01 04:27:14;;;;;;;101.72;40.92;;;;;;;;;;4937727;28;20436;-82
2022/12/01 04:29:40;;;;;;;95.53;41.10;;;;;;;;;;4939477;28;20082;-75
2022/12/01 04:32:06;;;;;;;98.57;41.50;;;;;;;;;;4941524;28;20024;-74
2022/12/01 04:34:32;;;;;;;115.97;48.03;;;;;;;;;;4942311;28;20105;-76
2022/12/01 04:36:58;;;;;;;100.57;43.95;;;;;;;;;;4940258;28;20031;-75
2022/12/01 04:39:24;;;;;;;113.97;47.97;;;;;;;;;;4935138;28;20392;-72
2022/12/01 04:41:50;;;;;;;111.70;43.67;;;;;;;;;;4947052;28;20023;-73
2022/12/01 04:44:16;;;;;;;100.93;43.00;;;;;;;;;;4948001;28;20023;-77
2022/12/01 04:46:42;;;;;;;102.57;43.58;;;;;;;;;;4949710;28;20080;-74
2022/12/01 04:49:08;;;;;;;122.88;47.17;;;;;;;;;;4952034;28;20562;-73
2022/12/01 04:51:34;;;;;;;95.78;43.35;;;;;;;;;;4953234;28;20062;-75
2022/12/01 04:54:01;;;;;;;99.85;43.25;;;;;;;;;;4955677;28;20041;-73
2022/12/01 04:56:27;;;;;;;115.63;44.47;;;;;;;;;;4951597;28;20054;-75
2022/12/01 04:58:53;;;;;;;107.10;43.92;;;;;;;;;;4952550;29;20099;-74
2022/12/01 05:01:19;;;;;;;109.68;44.92;;;;;;;;;;4933193;29;20111;-75
2022/12/01 05:03:50;;;;;;;101.65;42.58;;;;;;;;;;4945255;28;20042;-80
2022/12/01 05:06:17;;;;;;;113.90;45.65;;;;;;;;;;4939880;28;20027;-81
2022/12/01 05:08:43;;;;;;;133.82;56.15;;;;;;;;;;4938827;28;20118;-73
2022/12/01 05:11:11;;;;;;;112.63;45.22;;;;;;;;;;4944048;28;20153;-73
2022/12/01 05:13:41;;;;;;;108.07;43.40;;;;;;;;;;4946543;28;20078;-74
2022/12/01 05:16:11;;;;;;;102.82;41.80;;;;;;;;;;4944214;28;20361;-73
2022/12/01 05:18:37;;;;;;;100.47;42.15;;;;;;;;;;4949028;28;20035;-73
2022/12/01 05:21:03;;;;;;;98.82;41.85;;;;;;;;;;4946964;28;20031;-74
2022/12/01 05:23:30;;;;;;;101.10;42.67;;;;;;;;;;4946460;28;20141;-76
2022/12/01 05:25:57;;;;;;;104.35;42.10;;;;;;;;;;4941279;28;20702;-80
2022/12/01 05:28:24;;;;;;;93.95;40.00;;;;;;;;;;4941901;28;20055;-74
2022/12/01 05:30:50;;;;;;;101.15;42.95;;;;;;;;;;4946131;28;20492;-78
2022/12/01 05:33:17;;;;;;;96.43;42.45;;;;;;;;;;4946988;28;20027;-74
2022/12/01 05:35:43;;;;;;;99.38;42.88;;;;;;;;;;4946335;28;20027;-73
2022/12/01 05:38:09;;;;;;;112.03;43.45;;;;;;;;;;4928466;29;20051;-73
2022/12/01 05:40:36;;;;;;;174.85;94.13;;;;;;;;;;4948493;28;20019;-73
2022/12/01 05:43:02;;;;;;;106.25;44.83;;;;;;;;;;4951804;28;20023;-73
2022/12/01 05:45:29;;;;;;;107.03;45.00;;;;;;;;;;4951718;28;20741;-73
2022/12/01 05:47:55;;;;;;;105.15;43.30;;;;;;;;;;4944483;28;20023;-73
2022/12/01 05:50:22;;;;;;;106.10;45.20;;;;;;;;;;4947287;28;20059;-72
2022/12/01 05:52:48;;;;;;;102.47;44.67;;;;;;;;;;4949761;28;20055;-74
2022/12/01 05:55:14;;;;;;;103.15;43.38;;;;;;;;;;4947962;28;20035;-72
2022/12/01 05:57:40;;;;;;;110.50;42.83;;;;;;;;;;4946759;28;20083;-71
2022/12/01 06:00:07;;;;;;;103.88;45.13;;;;;;;;;;4950796;28;20076;-71
2022/12/01 06:02:33;;;;;;;97.30;40.35;;;;;;;;;;4945166;28;20035;-74
2022/12/01 06:04:59;;;;;;;101.57;44.25;;;;;;;;;;4947582;28;20726;-76
2022/12/01 06:07:25;;;;;;;103.72;44.03;;;;;;;;;;4947043;28;20024;-74
2022/12/01 06:09:51;;;;;;;98.72;43.00;;;;;;;;;;4950655;28;20051;-73
2022/12/01 06:12:18;;;;;;;103.70;45.15;;;;;;;;;;4945059;29;20106;-74
2022/12/01 06:14:44;;;;;;;101.40;40.95;;;;;;;;;;4945669;28;20031;-73
2022/12/01 06:17:11;;;;;;;95.50;42.15;;;;;;;;;;4949295;28;20157;-74
2022/12/01 06:19:38;;;;;;;105.28;42.08;;;;;;;;;;4944845;29;20126;-75
2022/12/01 06:22:04;;;;;;;103.82;43.42;;;;;;;;;;4948930;28;20095;-75
2022/12/01 06:24:30;;;;;;;101.82;43.00;;;;;;;;;;4945625;28;20488;-73
2022/12/01 06:26:56;;;;;;;99.68;43.75;;;;;;;;;;4945283;28;20023;-77
2022/12/01 06:29:22;;;;;;;102.63;45.00;;;;;;;;;;4946702;28;20545;-74
2022/12/01 06:31:48;;;;;;;111.20;43.75;;;;;;;;;;4947376;28;20034;-75
2022/12/01 06:34:14;;;;;;;102.40;44.30;;;;;;;;;;4946633;28;20139;-75
2022/12/01 06:36:40;;;;;;;104.63;43.05;;;;;;;;;;4947866;28;20031;-73
2022/12/01 06:39:08;;;;;;;99.85;43.28;;;;;;;;;;4947046;28;20052;-74
2022/12/01 06:41:35;;;;;;;104.78;43.30;;;;;;;;;;4946260;28;20263;-74
2022/12/01 06:44:01;;;;;;;108.93;43.80;;;;;;;;;;4946676;28;20598;-78
2022/12/01 06:46:27;;;;;;;105.28;43.55;;;;;;;;;;4946616;28;20034;-76
2022/12/01 06:48:53;;;;;;;101.85;42.72;;;;;;;;;;4945560;28;20035;-74
2022/12/01 06:51:19;;;;;;;96.43;39.55;;;;;;;;;;4946319;28;20034;-73
2022/12/01 06:53:45;;;;;;;93.50;39.10;;;;;;;;;;4946332;28;20030;-73
2022/12/01 06:56:11;;;;;;;101.10;40.97;;;;;;;;;;4946331;28;20106;-74
2022/12/01 06:58:37;;;;;;;91.25;39.38;;;;;;;;;;4946197;28;20117;-77
2022/12/01 07:01:10;;;;;;;86.68;39.63;;;;;;;;;;4946672;28;20384;-74
2022/12/01 07:03:37;;;;;;;93.82;37.65;;;;;;;;;;4946971;28;20182;-72
2022/12/01 07:06:03;;;;;;;91.72;37.63;;;;;;;;;;4945544;28;21526;-74
2022/12/01 07:08:30;;;;;;;91.50;37.15;;;;;;;;;;4946924;28;20039;-73
2022/12/01 07:11:06;;;;;;;93.97;38.17;;;;;;;;;;4943316;28;20035;-74
2022/12/01 07:13:32;;;;;;;89.90;38.90;;;;;;;;;;4945863;28;20409;-74
2022/12/01 07:15:58;;;;;;;95.30;39.92;;;;;;;;;;4945170;28;20031;-75
2022/12/01 07:18:24;;;;;;;90.05;38.95;;;;;;;;;;4947052;28;20115;-74
2022/12/01 07:20:50;;;;;;;91.68;39.58;;;;;;;;;;4930556;28;20165;-75
2022/12/01 07:23:16;;;;;;;96.43;38.78;;;;;;;;;;4943696;28;20508;-74
2022/12/01 07:25:42;;;;;;;85.43;37.67;;;;;;;;;;4945008;28;20046;-77
2022/12/01 07:28:08;;;;;;;92.00;39.50;;;;;;;;;;4944843;28;20051;-72
2022/12/01 07:30:34;;;;;;;97.05;40.47;;;;;;;;;;4946495;28;20031;-76
2022/12/01 07:33:00;;;;;;;91.80;38.38;;;;;;;;;;4945845;28;20042;-72
2022/12/01 07:35:27;;;;;;;94.72;39.72;;;;;;;;;;4943972;28;20722;-72
2022/12/01 07:37:56;;;;;;;89.57;37.80;;;;;;;;;;4944396;28;20488;-72
2022/12/01 07:40:22;;;;;;;97.22;39.78;;;;;;;;;;4946376;28;20039;-72
2022/12/01 07:42:48;;;;;;;79.13;36.42;;;;;;;;;;4947529;28;20481;-73
2022/12/01 07:45:15;;;;;;;92.10;37.53;;;;;;;;;;4945085;28;20038;-73
2022/12/01 07:47:41;;;;;;;95.63;39.13;;;;;;;;;;4946467;28;20070;-74
2022/12/01 07:50:07;;;;;;;98.75;40.40;;;;;;;;;;4948696;28;20471;-74
2022/12/01 07:52:33;;;;;;;88.13;37.97;;;;;;;;;;4944625;28;20036;-73
2022/12/01 07:54:59;;;;;;;87.20;38.17;;;;;;;;;;4939332;28;20047;-73
2022/12/01 07:57:25;;;;;;;97.80;40.10;;;;;;;;;;4936668;28;20469;-76
2022/12/01 07:59:51;;;;;;;85.80;38.92;;;;;;;;;;4944695;28;20471;-73
2022/12/01 08:02:18;;;;;;;92.32;41.47;;;;;;;;;;4942052;28;20122;-77
2022/12/01 08:04:44;;;;;;;85.68;39.75;;;;;;;;;;4934639;28;20027;-79
2022/12/01 08:07:10;;;;;;;83.70;38.97;;;;;;;;;;4938577;28;20027;-73
2022/12/01 08:09:36;;;;;;;88.20;39.47;;;;;;;;;;4943353;28;20039;-73
2022/12/01 08:12:02;;;;;;;91.13;43.05;;;;;;;;;;4947078;28;20497;-72
2022/12/01 08:14:28;;;;;;;90.05;40.35;;;;;;;;;;4954393;28;20505;-73
2022/12/01 08:16:54;;;;;;;86.88;37.38;;;;;;;;;;4952724;28;20052;-73
2022/12/01 08:19:20;;;;;;;89.10;38.63;;;;;;;;;;4938299;28;20046;-72
2022/12/01 08:21:46;;;;;;;82.18;39.20;;;;;;;;;;4943256;28;20034;-72
2022/12/01 08:24:12;;;;;;;82.03;37.38;;;;;;;;;;4935672;28;20035;-72
2022/12/01 08:26:38;;;;;;;82.35;36.53;;;;;;;;;;4941506;28;20044;-72
2022/12/01 08:29:04;;;;;;;75.93;36.78;;;;;;;;;;4931112;28;20056;-72
2022/12/01 08:31:31;;;;;;;78.55;38.17;;;;;;;;;;4948781;28;20066;-76
2022/12/01 08:33:57;;;;;;;80.00;38.15;;;;;;;;;;4945566;28;20562;-72
2022/12/01 08:36:24;;;;;;;104.43;50.13;;;;;;;;;;4944873;28;20043;-76
2022/12/01 08:38:52;;;;;;;92.15;42.25;;;;;;;;;;4943720;28;20035;-75
2022/12/01 08:41:19;;;;;;;79.47;39.13;;;;;;;;;;4948373;28;20038;-74
2022/12/01 08:43:45;;;;;;;91.13;42.70;;;;;;;;;;4931756;28;20031;-79
2022/12/01 08:46:15;;;;;;;81.53;37.30;;;;;;;;;;4946572;29;20035;-73
2022/12/01 08:48:41;;;;;;;81.93;39.05;;;;;;;;;;4948661;28;20042;-72
2022/12/01 08:51:08;;;;;;;80.35;37.72;;;;;;;;;;4927973;29;20047;-76
2022/12/01 08:53:35;;;;;;;79.93;35.03;;;;;;;;;;4944891;28;20504;-72
2022/12/01 08:56:02;;;;;;;78.18;37.83;;;;;;;;;;4943137;28;20242;-72
2022/12/01 08:58:28;;;;;;;80.28;39.75;;;;;;;;;;4942148;28;20291;-75
2022/12/01 09:01:00;;;;;;;75.78;36.70;;;;;;;;;;4939209;28;20636;-77
2022/12/01 09:03:26;;;;;;;74.85;36.33;;;;;;;;;;4945625;28;20019;-74
2022/12/01 09:05:52;;;;;;;79.97;38.58;;;;;;;;;;4944561;28;20039;-81
2022/12/01 09:08:30;;;;;;;81.00;37.38;;;;;;;;;;4941839;28;20044;-72
2022/12/01 09:10:57;;;;;;;76.32;36.13;;;;;;;;;;4925275;29;20426;-80
2022/12/01 09:13:23;;;;;;;65.88;31.88;;;;;;;;;;4923882;29;20122;-72
2022/12/01 09:15:59;;;;;;;64.00;31.25;;;;;;;;;;4944283;28;20044;-72
2022/12/01 09:18:25;;;;;;;61.20;31.10;;;;;;;;;;4944443;28;20123;-74
2022/12/01 09:20:52;;;;;;;64.40;28.73;;;;;;;;;;4944182;28;21619;-73
2022/12/01 09:23:18;;;;;;;51.95;26.17;;;;;;;;;;4942687;28;20107;-71
2022/12/01 09:25:44;;;;;;;55.28;27.00;;;;;;;;;;4944468;28;20047;-74
2022/12/01 09:28:10;;;;;;;54.90;28.52;;;;;;;;;;4943263;28;20059;-78
2022/12/01 09:30:36;;;;;;;53.00;25.95;;;;;;;;;;4926358;29;20042;-71
2022/12/01 09:33:02;;;;;;;52.00;25.10;;;;;;;;;;4922891;29;20461;-74
2022/12/01 09:35:30;;;;;;;59.67;26.83;;;;;;;;;;4944930;28;20023;-73
2022/12/01 09:37:57;;;;;;;57.83;25.48;;;;;;;;;;4909503;29;20043;-77
2022/12/01 09:40:30;;;;;;;46.60;23.05;;;;;;;;;;4921545;29;20087;-71
2022/12/01 09:42:56;;;;;;;38.85;21.25;;;;;;;;;;4925091;29;20028;-74
2022/12/01 09:45:26;;;;;;;69.55;35.67;;;;;;;;;;4924907;29;20055;-76
2022/12/01 09:47:53;;;;;;;53.08;27.60;;;;;;;;;;4925357;29;20388;-71
2022/12/01 09:50:24;;;;;;;32.22;17.85;;;;;;;;;;4903278;29;20516;-74
2022/12/01 09:52:56;;;;;;;32.97;18.42;;;;;;;;;;4936625;28;20028;-76
2022/12/01 09:55:24;;;;;;;31.63;17.55;;;;;;;;;;4920584;29;20035;-77
2022/12/01 09:57:52;;;;;;;31.02;18.05;;;;;;;;;;4922268;29;20043;-73
2022/12/01 10:00:20;;;;;;;35.33;18.63;;;;;;;;;;4924357;29;20118;-74
2022/12/01 10:02:46;;;;;;;31.58;17.48;;;;;;;;;;4919206;29;20032;-79
2022/12/01 10:05:19;;;;;;;32.75;18.58;;;;;;;;;;4921146;29;20039;-74
2022/12/01 10:07:53;;;;;;;26.63;17.10;;;;;;;;;;4921418;29;20036;-76
2022/12/01 10:10:30;;;;;;;32.10;17.17;;;;;;;;;;4921493;29;20050;-72
2022/12/01 10:12:56;;;;;;;27.67;16.42;;;;;;;;;;4924406;29;20044;-74
2022/12/01 10:15:38;;;;;;;26.67;16.05;;;;;;;;;;4924937;29;20032;-75
2022/12/01 10:18:24;;;;;;;29.60;16.30;;;;;;;;;;4923570;29;20043;-75
2022/12/01 10:21:09;;;;;;;21.65;14.23;;;;;;;;;;4922593;29;20028;-72
2022/12/01 10:23:47;;;;;;;24.85;15.60;;;;;;;;;;4918315;29;20104;-73
2022/12/01 10:26:14;;;;;;;25.42;15.70;;;;;;;;;;4922918;29;20031;-74
2022/12/01 10:28:40;;;;;;;21.35;14.13;;;;;;;;;;4936069;28;20052;-77
2022/12/01 10:31:33;;;;;;;23.88;14.05;;;;;;;;;;4926866;29;20037;-72
2022/12/01 10:34:20;;;;;;;20.88;13.68;;;;;;;;;;4901801;29;20052;-73
2022/12/01 10:36:47;;;;;;;18.15;13.02;;;;;;;;;;4922073;29;20039;-73
2022/12/01 10:39:18;;;;;;;18.55;13.27;;;;;;;;;;4925294;29;20511;-74
2022/12/01 10:41:45;;;;;;;17.07;11.90;;;;;;;;;;4908143;29;20039;-72
2022/12/01 10:44:11;;;;;;;20.70;13.38;;;;;;;;;;4908026;29;20039;-72
2022/12/01 10:46:52;;;;;;;19.38;13.20;;;;;;;;;;4923730;29;20046;-74
2022/12/01 10:49:19;;;;;;;18.83;13.02;;;;;;;;;;4917395;29;20082;-74
2022/12/01 10:52:05;;;;;;;16.38;11.82;;;;;;;;;;4924760;29;20031;-72
2022/12/01 10:54:40;;;;;;;20.35;12.20;;;;;;;;;;4919397;29;20433;-74
2022/12/01 10:57:13;;;;;;;17.35;12.27;;;;;;;;;;4926447;29;20031;-72
2022/12/01 10:59:56;;;;;;;20.25;12.70;;;;;;;;;;4924217;29;20050;-72
2022/12/01 11:02:23;;;;;;;17.58;11.70;;;;;;;;;;4926709;29;20111;-74
2022/12/01 11:05:00;;;;;;;16.52;10.68;;;;;;;;;;4903902;29;20122;-74
2022/12/01 11:07:28;;;;;;;23.33;16.50;;;;;;;;;;4919542;29;20035;-71
2022/12/01 11:10:01;;;;;;;23.65;15.02;;;;;;;;;;4929986;29;20072;-72
2022/12/01 11:12:28;;;;;;;26.77;14.77;;;;;;;;;;4927054;29;20050;-73
2022/12/01 11:14:55;;;;;;;20.27;12.65;;;;;;;;;;4914687;29;20406;-76
2022/12/01 11:17:26;;;;;;;18.75;12.23;;;;;;;;;;4917312;29;20122;-77
2022/12/01 11:19:52;;;;;;;18.00;10.77;;;;;;;;;;4924580;29;20556;-74
2022/12/01 11:22:26;;;;;;;15.90;10.40;;;;;;;;;;4918879;29;20043;-73
2022/12/01 11:24:52;;;;;;;15.90;11.35;;;;;;;;;;4912320;29;20585;-71
2022/12/01 11:28:00;;;;;;;20.20;12.75;;;;;;;;;;4923275;29;20107;-72
2022/12/01 11:30:28;;;;;;;16.63;11.13;;;;;;;;;;4884653;29;20071;-73
2022/12/01 11:33:01;;;;;;;21.05;11.77;;;;;;;;;;4914627;29;20432;-74
2022/12/01 11:35:29;;;;;;;15.35;10.82;;;;;;;;;;4923978;29;20093;-74
2022/12/01 11:37:56;;;;;;;16.88;10.73;;;;;;;;;;4904497;29;20733;-76
2022/12/01 11:40:27;;;;;;;14.45;9.98;;;;;;;;;;4923789;29;20031;-73
2022/12/01 11:42:55;;;;;;;13.38;10.77;;;;;;;;;;4924236;29;20036;-73
2022/12/01 11:45:24;;;;;;;18.52;10.80;;;;;;;;;;4905372;29;20035;-75
2022/12/01 11:48:05;;;;;;;14.20;9.85;;;;;;;;;;4921672;29;20059;-73
2022/12/01 11:50:32;;;;;;;16.65;10.98;;;;;;;;;;4922451;29;20577;-74
2022/12/01 11:52:58;;;;;;;16.55;11.52;;;;;;;;;;4925022;29;20032;-73
2022/12/01 11:55:25;;;;;;;15.77;10.82;;;;;;;;;;4924090;29;20091;-71
2022/12/01 11:57:54;;;;;;;13.27;9.38;;;;;;;;;;4925691;29;20031;-73
2022/12/01 12:00:23;;;;;;;16.10;10.43;;;;;;;;;;4922084;29;20024;-75
2022/12/01 12:03:07;;;;;;;14.60;10.55;;;;;;;;;;4928099;29;20032;-73
2022/12/01 12:05:44;;;;;;;16.52;11.13;;;;;;;;;;4917805;29;20039;-76
2022/12/01 12:08:29;;;;;;;14.75;10.45;;;;;;;;;;4930626;29;20063;-72
2022/12/01 12:11:13;;;;;;;14.30;9.90;;;;;;;;;;4926865;29;21464;-76
2022/12/01 12:13:39;;;;;;;18.00;10.27;;;;;;;;;;4932438;29;20036;-74
2022/12/01 12:16:17;;;;;;;14.90;10.20;;;;;;;;;;4921495;29;20028;-72
2022/12/01 12:18:43;;;;;;;14.48;10.55;;;;;;;;;;4926642;29;20039;-74
2022/12/01 12:21:21;;;;;;;13.82;9.25;;;;;;;;;;4921597;29;20036;-72
2022/12/01 12:24:03;;;;;;;15.13;9.65;;;;;;;;;;4909073;29;20039;-70
2022/12/01 12:26:30;;;;;;;16.33;10.05;;;;;;;;;;4928947;29;20120;-77
2022/12/01 12:29:19;;;;;;;25.85;15.27;;;;;;;;;;4927709;28;20450;-74
2022/12/01 12:31:51;;;;;;;27.85;12.13;;;;;;;;;;4927079;29;20489;-79
2022/12/01 12:34:22;;;;;;;19.17;10.68;;;;;;;;;;4924059;29;20069;-74
2022/12/01 12:36:51;;;;;;;17.40;10.63;;;;;;;;;;4921139;29;20039;-73
2022/12/01 12:39:36;;;;;;;13.63;9.98;;;;;;;;;;4928300;29;20087;-74
2022/12/01 12:42:05;;;;;;;13.85;10.10;;;;;;;;;;4927085;29;20492;-73
2022/12/01 12:44:34;;;;;;;15.10;10.73;;;;;;;;;;4924846;29;20388;-82
2022/12/01 12:47:00;;;;;;;16.88;9.95;;;;;;;;;;4926262;29;20032;-70
2022/12/01 12:49:26;;;;;;;14.93;10.20;;;;;;;;;;4925812;29;20047;-75
2022/12/01 12:52:01;;;;;;;13.20;9.75;;;;;;;;;;4928675;29;20052;-71
2022/12/01 12:54:30;;;;;;;15.52;11.00;;;;;;;;;;4908883;29;20043;-75
2022/12/01 12:57:05;;;;;;;17.05;11.52;;;;;;;;;;4927350;29;20039;-71
2022/12/01 12:59:40;;;;;;;19.08;10.95;;;;;;;;;;4908110;29;20336;-73
2022/12/01 13:02:06;;;;;;;17.35;10.85;;;;;;;;;;4926258;29;20039;-77
2022/12/01 13:04:36;;;;;;;18.98;11.40;;;;;;;;;;4920531;29;20468;-78
2022/12/01 13:07:05;;;;;;;19.52;11.48;;;;;;;;;;4926890;29;20038;-75
2022/12/01 13:09:52;;;;;;;18.15;11.30;;;;;;;;;;4925834;29;20126;-73
2022/12/01 13:12:29;;;;;;;18.55;11.02;;;;;;;;;;4927610;29;20062;-77
2022/12/01 13:14:58;;;;;;;31.38;19.15;;;;;;;;;;4925581;29;20038;-72
2022/12/01 13:17:27;;;;;;;19.65;12.85;;;;;;;;;;4910431;29;20451;-72
2022/12/01 13:19:53;;;;;;;18.65;13.40;;;;;;;;;;4925682;29;20036;-81
2022/12/01 13:22:21;;;;;;;19.67;11.90;;;;;;;;;;4939484;28;20046;-72
2022/12/01 13:24:47;;;;;;;19.45;12.35;;;;;;;;;;4926302;29;20106;-73
2022/12/01 13:27:16;;;;;;;18.48;12.27;;;;;;;;;;4910506;29;20067;-70
2022/12/01 13:29:47;;;;;;;19.23;12.32;;;;;;;;;;4926392;29;20047;-73
2022/12/01 13:32:32;;;;;;;18.55;12.30;;;;;;;;;;4924789;29;20024;-71
2022/12/01 13:34:59;;;;;;;17.73;11.57;;;;;;;;;;4922026;29;20070;-71
2022/12/01 13:37:27;;;;;;;20.42;12.02;;;;;;;;;;4927201;29;20066;-71
2022/12/01 13:39:55;;;;;;;16.05;10.95;;;;;;;;;;4907838;29;20108;-74
2022/12/01 13:42:23;;;;;;;15.73;10.20;;;;;;;;;;4926353;29;20023;-74
2022/12/01 13:44:54;;;;;;;16.83;10.77;;;;;;;;;;4918555;29;20066;-73
2022/12/01 13:47:20;;;;;;;19.40;10.33;;;;;;;;;;4925863;29;20038;-78
2022/12/01 13:49:48;;;;;;;15.70;10.13;;;;;;;;;;4925183;29;20039;-76
2022/12/01 13:52:17;;;;;;;15.48;10.80;;;;;;;;;;4924100;29;20039;-73
2022/12/01 13:55:02;;;;;;;16.77;11.90;;;;;;;;;;4926490;29;20035;-74
2022/12/01 13:57:30;;;;;;;12.50;9.70;;;;;;;;;;4926486;29;20034;-72
2022/12/01 13:59:59;;;;;;;13.25;9.23;;;;;;;;;;4926247;29;20585;-75
2022/12/01 14:02:26;;;;;;;15.25;10.25;;;;;;;;;;4942333;28;20032;-79
2022/12/01 14:04:52;;;;;;;15.95;10.52;;;;;;;;;;4926373;29;20059;-74
2022/12/01 14:07:23;;;;;;;21.42;13.45;;;;;;;;;;4924760;29;20067;-80
2022/12/01 14:09:51;;;;;;;26.85;15.23;;;;;;;;;;4907036;29;20058;-74
2022/12/01 14:12:21;;;;;;;22.17;13.68;;;;;;;;;;4928656;29;20032;-73
2022/12/01 14:14:53;;;;;;;20.75;14.02;;;;;;;;;;4925109;29;20125;-71
2022/12/01 14:17:37;;;;;;;15.00;9.48;;;;;;;;;;4925035;29;20035;-73
2022/12/01 14:20:07;;;;;;;16.15;9.90;;;;;;;;;;4925297;29;20540;-71
2022/12/01 14:22:44;;;;;;;16.92;11.30;;;;;;;;;;4921878;29;20036;-73
2022/12/01 14:25:20;;;;;;;21.15;12.32;;;;;;;;;;4923691;29;20055;-77
2022/12/01 14:27:47;;;;;;;19.58;12.75;;;;;;;;;;4926304;29;20470;-75
2022/12/01 14:30:31;;;;;;;20.27;12.68;;;;;;;;;;4923877;29;20071;-75